createdAt,value
2018-04-24T00:00:05.692Z,83.28
2018-04-24T00:01:05.706Z,82.98
2018-04-24T00:02:05.714Z,82.79
2018-04-24T00:03:05.748Z,82.98
2018-04-24T00:04:05.768Z,82.98
2018-04-24T00:05:05.783Z,82.70
2018-04-24T00:06:05.770Z,82.70
2018-04-24T00:07:05.811Z,83.47
2018-04-24T00:08:05.932Z,82.98
2018-04-24T00:09:05.835Z,82.79
2018-04-24T00:10:05.841Z,82.50
2018-04-24T00:11:05.890Z,82.50
2018-04-24T00:12:05.874Z,82.79
2018-04-24T00:13:05.882Z,82.60
2018-04-24T00:14:05.925Z,82.26
2018-04-24T00:15:05.919Z,82.31
2018-04-24T00:16:05.929Z,81.93
2018-04-24T00:17:05.978Z,82.21
2018-04-24T00:18:05.963Z,82.12
2018-04-24T00:19:06.004Z,82.21
2018-04-24T00:20:06.000Z,82.79
2018-04-24T00:21:06.024Z,82.79
2018-04-24T00:22:06.050Z,82.89
2018-04-24T00:23:06.058Z,81.83
2018-04-24T00:24:06.059Z,82.31
2018-04-24T00:25:06.090Z,82.21
2018-04-24T00:26:06.145Z,81.73
2018-04-24T00:27:06.117Z,81.73
2018-04-24T00:28:06.130Z,82.02
2018-04-24T00:29:06.142Z,81.63
2018-04-24T00:30:06.181Z,81.54
2018-04-24T00:31:06.169Z,81.83
2018-04-24T00:32:06.202Z,82.21
2018-04-24T00:33:06.201Z,82.60
2018-04-24T00:34:06.221Z,82.60
2018-04-24T00:35:06.245Z,82.41
2018-04-24T00:36:06.258Z,82.50
2018-04-24T00:37:06.263Z,82.50
2018-04-24T00:38:06.580Z,82.89
2018-04-24T00:39:06.296Z,82.98
2018-04-24T00:40:06.335Z,82.98
2018-04-24T00:41:06.337Z,83.08
2018-04-24T00:42:06.339Z,83.28
2018-04-24T00:43:06.363Z,83.37
2018-04-24T00:44:06.375Z,83.56
2018-04-24T00:45:06.391Z,83.18
2018-04-24T00:46:06.409Z,83.56
2018-04-24T00:47:06.432Z,83.08
2018-04-24T00:48:06.448Z,83.08
2018-04-24T00:49:06.449Z,83.56
2018-04-24T00:50:06.465Z,83.66
2018-04-24T00:51:06.505Z,83.37
2018-04-24T00:52:06.497Z,83.47
2018-04-24T00:53:06.542Z,83.37
2018-04-24T00:54:06.534Z,83.47
2018-04-24T00:55:06.549Z,83.47
2018-04-24T00:56:06.566Z,83.95
2018-04-24T00:57:07.181Z,84.05
2018-04-24T00:58:06.604Z,84.05
2018-04-24T00:59:06.620Z,84.05
2018-04-24T01:00:06.621Z,83.91
2018-04-24T01:01:06.667Z,83.91
2018-04-24T01:02:06.653Z,83.81
2018-04-24T01:03:06.672Z,83.95
2018-04-24T01:04:06.680Z,83.91
2018-04-24T01:05:06.702Z,84.58
2018-04-24T01:06:06.923Z,84.53
2018-04-24T01:07:06.733Z,83.52
2018-04-24T01:08:06.748Z,83.81
2018-04-24T01:09:06.790Z,83.91
2018-04-24T01:10:06.796Z,84.39
2018-04-24T01:11:06.796Z,84.58
2018-04-24T01:12:06.823Z,84.67
2018-04-24T01:13:06.825Z,84.87
2018-04-24T01:14:06.846Z,84.97
2018-04-24T01:15:06.854Z,84.77
2018-04-24T01:16:06.874Z,85.16
2018-04-24T01:17:06.916Z,84.97
2018-04-24T01:18:06.932Z,85.16
2018-04-24T01:19:06.945Z,85.25
2018-04-24T01:20:06.939Z,85.83
2018-04-24T01:21:06.965Z,85.93
2018-04-24T01:22:06.990Z,86.12
2018-04-24T01:23:06.977Z,86.12
2018-04-24T01:24:06.997Z,85.93
2018-04-24T01:25:07.009Z,85.83
2018-04-24T01:26:07.049Z,85.83
2018-04-24T01:27:07.040Z,85.83
2018-04-24T01:28:07.086Z,86.22
2018-04-24T01:29:07.097Z,86.36
2018-04-24T01:30:07.085Z,86.27
2018-04-24T01:31:07.108Z,86.31
2018-04-24T01:32:07.122Z,86.31
2018-04-24T01:33:07.233Z,86.02
2018-04-24T01:34:07.176Z,86.12
2018-04-24T01:35:07.177Z,86.12
2018-04-24T01:36:07.184Z,86.65
2018-04-24T01:37:07.206Z,86.85
2018-04-24T01:38:07.312Z,87.42
2018-04-24T01:39:07.228Z,87.33
2018-04-24T01:40:07.271Z,87.33
2018-04-24T01:41:07.269Z,87.52
2018-04-24T01:42:07.284Z,87.33
2018-04-24T01:43:07.390Z,87.71
2018-04-24T01:44:07.308Z,87.71
2018-04-24T01:45:07.316Z,87.71
2018-04-24T01:46:07.332Z,87.42
2018-04-24T01:47:07.381Z,87.33
2018-04-24T01:48:07.369Z,86.65
2018-04-24T01:49:07.402Z,87.23
2018-04-24T01:50:07.400Z,87.13
2018-04-24T01:51:07.412Z,87.04
2018-04-24T01:52:07.458Z,86.85
2018-04-24T01:53:07.438Z,87.13
2018-04-24T01:54:07.456Z,86.94
2018-04-24T01:55:07.484Z,87.04
2018-04-24T01:56:07.485Z,86.85
2018-04-24T01:57:07.527Z,86.94
2018-04-24T01:58:07.522Z,86.85
2018-04-24T01:59:07.558Z,87.23
2018-04-24T02:00:07.545Z,87.33
2018-04-24T02:01:07.560Z,86.94
2018-04-24T02:02:07.610Z,87.33
2018-04-24T02:03:07.694Z,87.23
2018-04-24T02:04:07.633Z,87.42
2018-04-24T02:05:07.623Z,87.52
2018-04-24T02:06:07.643Z,87.90
2018-04-24T02:07:07.680Z,87.42
2018-04-24T02:08:07.668Z,87.52
2018-04-24T02:09:07.710Z,87.71
2018-04-24T02:10:07.699Z,87.33
2018-04-24T02:11:07.739Z,87.33
2018-04-24T02:12:07.733Z,87.33
2018-04-24T02:13:07.758Z,88.29
2018-04-24T02:14:07.758Z,87.90
2018-04-24T02:15:07.779Z,87.90
2018-04-24T02:16:07.800Z,88.00
2018-04-24T02:17:07.806Z,87.90
2018-04-24T02:18:07.922Z,87.71
2018-04-24T02:19:07.852Z,87.52
2018-04-24T02:20:07.845Z,87.90
2018-04-24T02:21:07.889Z,87.90
2018-04-24T02:22:07.894Z,88.19
2018-04-24T02:23:07.897Z,87.90
2018-04-24T02:24:07.908Z,88.00
2018-04-24T02:25:07.928Z,88.00
2018-04-24T02:26:07.969Z,87.81
2018-04-24T02:27:07.957Z,87.71
2018-04-24T02:28:08.102Z,88.00
2018-04-24T02:29:08.018Z,87.90
2018-04-24T02:30:08.026Z,88.48
2018-04-24T02:31:08.031Z,88.39
2018-04-24T02:32:08.054Z,88.10
2018-04-24T02:33:08.075Z,88.39
2018-04-24T02:34:08.065Z,88.39
2018-04-24T02:35:08.076Z,88.77
2018-04-24T02:36:08.091Z,88.87
2018-04-24T02:37:08.136Z,88.57
2018-04-24T02:38:08.251Z,89.15
2018-04-24T02:39:08.141Z,89.25
2018-04-24T02:40:08.155Z,89.25
2018-04-24T02:41:08.171Z,89.92
2018-04-24T02:42:08.207Z,89.15
2018-04-24T02:43:08.228Z,89.06
2018-04-24T02:44:08.217Z,89.35
2018-04-24T02:45:08.257Z,89.25
2018-04-24T02:46:08.247Z,89.44
2018-04-24T02:47:08.254Z,89.25
2018-04-24T02:48:08.305Z,89.25
2018-04-24T02:49:08.292Z,89.25
2018-04-24T02:50:08.329Z,88.96
2018-04-24T02:51:08.323Z,88.96
2018-04-24T02:52:08.360Z,89.15
2018-04-24T02:53:08.398Z,89.06
2018-04-24T02:54:08.407Z,89.64
2018-04-24T02:55:08.380Z,89.35
2018-04-24T02:56:08.422Z,89.44
2018-04-24T02:57:08.438Z,89.78
2018-04-24T02:58:08.426Z,89.54
2018-04-24T02:59:08.441Z,89.30
2018-04-24T03:00:08.465Z,89.50
2018-04-24T03:01:08.474Z,89.25
2018-04-24T03:02:08.511Z,89.50
2018-04-24T03:03:08.529Z,90.07
2018-04-24T03:04:08.513Z,90.07
2018-04-24T03:05:08.535Z,90.07
2018-04-24T03:06:08.569Z,89.30
2018-04-24T03:07:08.561Z,89.98
2018-04-24T03:08:08.589Z,89.50
2018-04-24T03:09:08.589Z,89.98
2018-04-24T03:10:08.601Z,89.69
2018-04-24T03:11:08.647Z,89.50
2018-04-24T03:12:08.666Z,89.30
2018-04-24T03:13:08.691Z,89.78
2018-04-24T03:14:08.680Z,90.17
2018-04-24T03:15:08.679Z,90.55
2018-04-24T03:16:08.719Z,90.55
2018-04-24T03:17:08.711Z,90.75
2018-04-24T03:18:08.724Z,90.36
2018-04-24T03:19:08.734Z,90.65
2018-04-24T03:20:08.781Z,90.36
2018-04-24T03:21:08.775Z,90.65
2018-04-24T03:22:08.815Z,90.36
2018-04-24T03:23:08.822Z,90.84
2018-04-24T03:24:08.815Z,90.65
2018-04-24T03:25:08.839Z,91.03
2018-04-24T03:26:08.879Z,90.94
2018-04-24T03:27:08.886Z,91.03
2018-04-24T03:28:08.972Z,90.94
2018-04-24T03:29:08.896Z,91.03
2018-04-24T03:30:08.933Z,91.03
2018-04-24T03:31:08.943Z,90.84
2018-04-24T03:32:08.933Z,91.42
2018-04-24T03:33:08.963Z,91.22
2018-04-24T03:34:08.987Z,91.71
2018-04-24T03:35:09.006Z,91.61
2018-04-24T03:36:09.018Z,91.61
2018-04-24T03:37:09.041Z,91.71
2018-04-24T03:38:09.031Z,91.71
2018-04-24T03:39:09.069Z,92.38
2018-04-24T03:40:09.052Z,92.09
2018-04-24T03:41:09.095Z,92.47
2018-04-24T03:42:09.084Z,92.38
2018-04-24T03:43:09.229Z,91.99
2018-04-24T03:44:09.114Z,92.09
2018-04-24T03:45:09.134Z,92.57
2018-04-24T03:46:09.167Z,92.29
2018-04-24T03:47:09.181Z,92.76
2018-04-24T03:48:09.196Z,92.67
2018-04-24T03:49:09.196Z,93.15
2018-04-24T03:50:09.230Z,93.15
2018-04-24T03:51:09.243Z,93.15
2018-04-24T03:52:09.231Z,93.73
2018-04-24T03:53:09.344Z,93.53
2018-04-24T03:54:09.258Z,93.82
2018-04-24T03:55:09.302Z,93.77
2018-04-24T03:56:09.289Z,93.82
2018-04-24T03:57:09.314Z,94.06
2018-04-24T03:58:09.326Z,93.77
2018-04-24T03:59:09.358Z,94.06
2018-04-24T04:00:09.352Z,94.01
2018-04-24T04:01:09.396Z,93.87
2018-04-24T04:02:09.407Z,93.96
2018-04-24T04:03:09.394Z,94.21
2018-04-24T04:04:09.413Z,93.96
2018-04-24T04:05:09.424Z,94.16
2018-04-24T04:06:09.455Z,94.83
2018-04-24T04:07:09.479Z,94.16
2018-04-24T04:08:09.471Z,94.45
2018-04-24T04:09:09.506Z,94.73
2018-04-24T04:10:09.525Z,94.83
2018-04-24T04:11:09.525Z,95.03
2018-04-24T04:12:09.527Z,94.93
2018-04-24T04:13:09.555Z,94.73
2018-04-24T04:14:09.553Z,95.12
2018-04-24T04:15:09.568Z,94.93
2018-04-24T04:16:09.583Z,94.73
2018-04-24T04:17:09.629Z,94.83
2018-04-24T04:18:09.629Z,94.83
2018-04-24T04:19:09.656Z,95.12
2018-04-24T04:20:09.642Z,95.12
2018-04-24T04:21:09.661Z,94.35
2018-04-24T04:22:09.678Z,94.64
2018-04-24T04:23:09.685Z,94.45
2018-04-24T04:24:09.705Z,94.64
2018-04-24T04:25:09.731Z,94.54
2018-04-24T04:26:09.758Z,94.35
2018-04-24T04:27:09.757Z,95.12
2018-04-24T04:28:09.759Z,95.03
2018-04-24T04:29:09.803Z,95.03
2018-04-24T04:30:09.821Z,94.83
2018-04-24T04:31:09.818Z,94.93
2018-04-24T04:32:09.832Z,95.12
2018-04-24T04:33:09.943Z,95.21
2018-04-24T04:34:09.846Z,95.70
2018-04-24T04:35:09.861Z,95.89
2018-04-24T04:36:09.882Z,96.56
2018-04-24T04:37:09.904Z,95.98
2018-04-24T04:38:09.908Z,96.17
2018-04-24T04:39:09.932Z,95.89
2018-04-24T04:40:09.940Z,96.42
2018-04-24T04:41:09.948Z,96.70
2018-04-24T04:42:09.976Z,96.27
2018-04-24T04:43:10.083Z,96.66
2018-04-24T04:44:09.998Z,96.17
2018-04-24T04:45:10.013Z,96.17
2018-04-24T04:46:10.047Z,96.47
2018-04-24T04:47:10.045Z,96.51
2018-04-24T04:48:10.149Z,96.85
2018-04-24T04:49:10.078Z,95.89
2018-04-24T04:50:10.111Z,96.08
2018-04-24T04:51:10.100Z,96.75
2018-04-24T04:52:10.137Z,96.70
2018-04-24T04:53:10.152Z,96.42
2018-04-24T04:54:10.142Z,96.80
2018-04-24T04:55:10.158Z,96.80
2018-04-24T04:56:10.293Z,96.27
2018-04-24T04:57:10.183Z,95.84
2018-04-24T04:58:10.235Z,96.22
2018-04-24T04:59:10.246Z,95.94
2018-04-24T05:00:10.226Z,95.60
2018-04-24T05:01:10.243Z,95.75
2018-04-24T05:02:10.279Z,95.79
2018-04-24T05:03:10.298Z,95.55
2018-04-24T05:04:10.310Z,95.79
2018-04-24T05:05:10.361Z,95.55
2018-04-24T05:06:10.342Z,95.84
2018-04-24T05:07:10.333Z,95.55
2018-04-24T05:08:10.354Z,95.65
2018-04-24T05:09:10.377Z,95.55
2018-04-24T05:10:10.373Z,95.55
2018-04-24T05:11:10.394Z,95.84
2018-04-24T05:12:10.404Z,95.65
2018-04-24T05:13:10.434Z,95.79
2018-04-24T05:14:10.441Z,95.94
2018-04-24T05:15:10.450Z,95.75
2018-04-24T05:16:10.492Z,95.45
2018-04-24T05:17:10.477Z,95.84
2018-04-24T05:18:10.494Z,95.17
2018-04-24T05:19:10.517Z,95.07
2018-04-24T05:20:10.613Z,95.36
2018-04-24T05:21:10.556Z,95.65
2018-04-24T05:22:10.584Z,95.07
2018-04-24T05:23:10.565Z,95.36
2018-04-24T05:24:10.629Z,95.26
2018-04-24T05:25:10.593Z,95.26
2018-04-24T05:26:10.602Z,95.07
2018-04-24T05:27:10.623Z,95.55
2018-04-24T05:28:10.759Z,95.84
2018-04-24T05:29:10.651Z,95.75
2018-04-24T05:30:10.694Z,95.75
2018-04-24T05:31:10.715Z,95.94
2018-04-24T05:32:10.694Z,95.65
2018-04-24T05:33:10.705Z,95.55
2018-04-24T05:34:10.721Z,95.55
2018-04-24T05:35:10.745Z,95.94
2018-04-24T05:36:10.761Z,96.22
2018-04-24T05:37:10.766Z,96.32
2018-04-24T05:38:10.779Z,96.13
2018-04-24T05:39:10.793Z,96.22
2018-04-24T05:40:10.839Z,96.99
2018-04-24T05:41:10.850Z,96.99
2018-04-24T05:42:10.859Z,96.13
2018-04-24T05:43:10.848Z,96.61
2018-04-24T05:44:10.880Z,96.80
2018-04-24T05:45:10.881Z,95.94
2018-04-24T05:46:10.891Z,96.03
2018-04-24T05:47:10.919Z,96.22
2018-04-24T05:48:10.926Z,95.94
2018-04-24T05:49:10.946Z,96.13
2018-04-24T05:50:10.952Z,96.22
2018-04-24T05:51:10.961Z,96.42
2018-04-24T05:52:10.994Z,96.32
2018-04-24T05:53:10.993Z,96.32
2018-04-24T05:54:11.004Z,95.84
2018-04-24T05:55:11.019Z,96.03
2018-04-24T05:56:11.041Z,96.32
2018-04-24T05:57:11.051Z,96.27
2018-04-24T05:58:11.070Z,96.22
2018-04-24T05:59:11.076Z,95.89
2018-04-24T06:00:11.089Z,95.89
2018-04-24T06:01:11.104Z,96.03
2018-04-24T06:02:11.145Z,95.89
2018-04-24T06:03:11.204Z,95.89
2018-04-24T06:04:11.157Z,95.79
2018-04-24T06:05:11.170Z,96.56
2018-04-24T06:06:11.179Z,96.94
2018-04-24T06:07:11.189Z,97.04
2018-04-24T06:08:11.219Z,96.94
2018-04-24T06:09:11.223Z,96.56
2018-04-24T06:10:11.265Z,96.75
2018-04-24T06:11:11.274Z,96.85
2018-04-24T06:12:11.262Z,96.94
2018-04-24T06:13:11.305Z,96.75
2018-04-24T06:14:11.301Z,96.56
2018-04-24T06:15:11.397Z,96.56
2018-04-24T06:16:11.329Z,96.47
2018-04-24T06:17:11.358Z,96.56
2018-04-24T06:18:11.372Z,96.56
2018-04-24T06:19:11.364Z,96.66
2018-04-24T06:20:11.404Z,96.75
2018-04-24T06:21:11.415Z,96.75
2018-04-24T06:22:11.402Z,96.18
2018-04-24T06:23:11.426Z,96.66
2018-04-24T06:24:11.465Z,96.75
2018-04-24T06:25:11.446Z,96.66
2018-04-24T06:26:11.463Z,97.14
2018-04-24T06:27:11.470Z,96.75
2018-04-24T06:28:11.486Z,96.75
2018-04-24T06:29:11.536Z,97.33
2018-04-24T06:30:11.532Z,96.75
2018-04-24T06:31:11.556Z,96.75
2018-04-24T06:32:11.544Z,96.56
2018-04-24T06:33:11.587Z,96.75
2018-04-24T06:34:11.575Z,96.56
2018-04-24T06:35:11.595Z,96.85
2018-04-24T06:36:11.601Z,96.75
2018-04-24T06:37:11.641Z,96.75
2018-04-24T06:38:11.633Z,96.94
2018-04-24T06:39:11.673Z,96.94
2018-04-24T06:40:11.682Z,96.85
2018-04-24T06:41:11.703Z,97.33
2018-04-24T06:42:11.726Z,97.52
2018-04-24T06:43:11.703Z,96.94
2018-04-24T06:44:11.713Z,96.85
2018-04-24T06:45:11.733Z,96.66
2018-04-24T06:46:11.739Z,96.66
2018-04-24T06:47:11.758Z,96.47
2018-04-24T06:48:11.876Z,96.08
2018-04-24T06:49:11.801Z,95.70
2018-04-24T06:50:11.798Z,95.60
2018-04-24T06:51:11.812Z,95.60
2018-04-24T06:52:11.825Z,95.94
2018-04-24T06:53:11.839Z,95.65
2018-04-24T06:54:11.854Z,94.79
2018-04-24T06:55:11.870Z,94.88
2018-04-24T06:56:11.913Z,95.46
2018-04-24T06:57:11.902Z,95.55
2018-04-24T06:58:11.936Z,94.49
2018-04-24T06:59:11.928Z,94.79
2018-04-24T07:00:11.951Z,96.70
2018-04-24T07:01:11.955Z,97.56
2018-04-24T07:02:11.970Z,97.56
2018-04-24T07:03:11.984Z,97.19
2018-04-24T07:04:12.043Z,97.09
2018-04-24T07:05:12.013Z,97.38
2018-04-24T07:06:12.023Z,97.66
2018-04-24T07:07:12.050Z,98.14
2018-04-24T07:08:12.081Z,98.24
2018-04-24T07:09:12.077Z,98.53
2018-04-24T07:10:12.083Z,98.43
2018-04-24T07:11:12.093Z,98.33
2018-04-24T07:12:12.115Z,99.20
2018-04-24T07:13:12.151Z,99.20
2018-04-24T07:14:12.143Z,98.82
2018-04-24T07:15:12.143Z,98.53
2018-04-24T07:16:12.169Z,99.10
2018-04-24T07:17:12.182Z,99.39
2018-04-24T07:18:12.192Z,98.62
2018-04-24T07:19:12.205Z,99.01
2018-04-24T07:20:12.221Z,98.33
2018-04-24T07:21:12.259Z,99.01
2018-04-24T07:22:12.308Z,98.33
2018-04-24T07:23:12.272Z,98.43
2018-04-24T07:24:12.312Z,98.53
2018-04-24T07:25:12.321Z,98.62
2018-04-24T07:26:12.336Z,98.72
2018-04-24T07:27:12.400Z,99.01
2018-04-24T07:28:12.328Z,99.01
2018-04-24T07:29:12.345Z,99.20
2018-04-24T07:30:12.358Z,98.91
2018-04-24T07:31:12.447Z,98.62
2018-04-24T07:32:12.416Z,98.33
2018-04-24T07:33:12.503Z,98.43
2018-04-24T07:34:12.412Z,99.01
2018-04-24T07:35:12.434Z,99.01
2018-04-24T07:36:12.451Z,99.01
2018-04-24T07:37:12.457Z,99.01
2018-04-24T07:38:12.475Z,98.14
2018-04-24T07:39:12.482Z,98.33
2018-04-24T07:40:12.499Z,99.01
2018-04-24T07:41:12.523Z,99.01
2018-04-24T07:42:12.561Z,99.01
2018-04-24T07:43:12.568Z,99.01
2018-04-24T07:44:12.582Z,98.91
2018-04-24T07:45:12.590Z,99.29
2018-04-24T07:46:12.584Z,99.20
2018-04-24T07:47:12.599Z,99.39
2018-04-24T07:48:12.610Z,99.77
2018-04-24T07:49:12.650Z,99.96
2018-04-24T07:50:12.641Z,99.77
2018-04-24T07:51:12.666Z,99.77
2018-04-24T07:52:12.690Z,99.99
2018-04-24T07:53:12.709Z,99.99
2018-04-24T07:54:12.720Z,99.99
2018-04-24T07:55:12.723Z,99.99
2018-04-24T07:56:12.728Z,99.99
2018-04-24T07:57:12.735Z,99.96
2018-04-24T07:58:12.779Z,99.96
2018-04-24T07:59:12.771Z,99.87
2018-04-24T08:00:12.780Z,99.87
2018-04-24T08:01:12.791Z,99.99
2018-04-24T08:02:12.798Z,99.99
2018-04-24T08:03:12.820Z,99.99
2018-04-24T08:04:12.839Z,99.99
2018-04-24T08:05:12.858Z,99.99
2018-04-24T08:06:12.866Z,99.99
2018-04-24T08:07:12.901Z,99.99
2018-04-24T08:08:12.994Z,99.99
2018-04-24T08:09:12.905Z,99.99
2018-04-24T08:10:12.927Z,99.99
2018-04-24T08:11:12.941Z,99.99
2018-04-24T08:12:12.972Z,99.99
2018-04-24T08:13:13.057Z,99.99
2018-04-24T08:14:12.987Z,99.99
2018-04-24T08:15:12.998Z,99.99
2018-04-24T08:16:13.008Z,99.99
2018-04-24T08:17:13.046Z,99.99
2018-04-24T08:18:13.050Z,99.96
2018-04-24T08:19:13.051Z,99.99
2018-04-24T08:20:13.064Z,99.99
2018-04-24T08:21:13.082Z,99.96
2018-04-24T08:22:13.112Z,99.99
2018-04-24T08:23:13.095Z,99.99
2018-04-24T08:24:13.144Z,99.96
2018-04-24T08:25:13.151Z,99.49
2018-04-24T08:26:13.136Z,99.49
2018-04-24T08:27:13.177Z,99.96
2018-04-24T08:28:13.165Z,99.96
2018-04-24T08:29:13.205Z,99.99
2018-04-24T08:30:13.195Z,99.99
2018-04-24T08:31:13.235Z,99.99
2018-04-24T08:32:13.223Z,99.99
2018-04-24T08:33:13.230Z,99.96
2018-04-24T08:34:13.255Z,99.99
2018-04-24T08:35:13.264Z,99.99
2018-04-24T08:36:13.287Z,99.99
2018-04-24T08:37:13.286Z,99.99
2018-04-24T08:38:13.427Z,99.96
2018-04-24T08:39:13.322Z,99.99
2018-04-24T08:40:13.324Z,99.99
2018-04-24T08:41:13.340Z,99.99
2018-04-24T08:42:13.358Z,99.99
2018-04-24T08:43:13.404Z,99.99
2018-04-24T08:44:13.392Z,99.99
2018-04-24T08:45:13.425Z,99.96
2018-04-24T08:46:13.410Z,99.87
2018-04-24T08:47:13.457Z,99.99
2018-04-24T08:48:13.456Z,99.39
2018-04-24T08:49:13.450Z,99.77
2018-04-24T08:50:13.481Z,99.87
2018-04-24T08:51:13.486Z,99.96
2018-04-24T08:52:13.518Z,99.39
2018-04-24T08:53:13.610Z,99.10
2018-04-24T08:54:13.534Z,99.20
2018-04-24T08:55:13.563Z,99.20
2018-04-24T08:56:13.550Z,98.82
2018-04-24T08:57:13.588Z,99.39
2018-04-24T08:58:13.573Z,99.20
2018-04-24T08:59:13.589Z,99.39
2018-04-24T09:00:13.619Z,99.39
2018-04-24T09:01:13.647Z,99.96
2018-04-24T09:02:13.656Z,99.87
2018-04-24T09:03:13.646Z,99.99
2018-04-24T09:04:13.687Z,99.87
2018-04-24T09:05:13.702Z,99.39
2018-04-24T09:06:13.691Z,99.99
2018-04-24T09:07:13.729Z,99.99
2018-04-24T09:08:13.713Z,99.99
2018-04-24T09:09:13.827Z,99.99
2018-04-24T09:10:13.743Z,99.99
2018-04-24T09:11:13.786Z,99.99
2018-04-24T09:12:13.771Z,99.99
2018-04-24T09:13:13.781Z,99.99
2018-04-24T09:14:13.894Z,99.96
2018-04-24T09:15:13.844Z,99.99
2018-04-24T09:16:13.842Z,99.99
2018-04-24T09:17:13.861Z,99.99
2018-04-24T09:18:13.875Z,99.99
2018-04-24T09:19:13.871Z,99.99
2018-04-24T09:20:13.875Z,99.99
2018-04-24T09:21:13.955Z,99.99
2018-04-24T09:22:13.903Z,99.99
2018-04-24T09:23:13.923Z,99.99
2018-04-24T09:24:13.940Z,99.99
2018-04-24T09:25:13.951Z,99.99
2018-04-24T09:26:13.990Z,99.99
2018-04-24T09:27:14.092Z,99.99
2018-04-24T09:28:13.998Z,99.99
2018-04-24T09:29:14.031Z,99.99
2018-04-24T09:30:14.023Z,99.99
2018-04-24T09:31:14.074Z,99.99
2018-04-24T09:32:14.068Z,99.99
2018-04-24T09:33:14.061Z,99.99
2018-04-24T09:34:14.071Z,99.99
2018-04-24T09:35:14.089Z,99.99
2018-04-24T09:36:14.128Z,99.99
2018-04-24T09:37:14.152Z,99.99
2018-04-24T09:38:14.142Z,99.99
2018-04-24T09:39:14.145Z,99.96
2018-04-24T09:40:14.158Z,99.99
2018-04-24T09:41:14.197Z,99.99
2018-04-24T09:42:14.208Z,99.99
2018-04-24T09:43:14.210Z,99.99
2018-04-24T09:44:14.237Z,99.99
2018-04-24T09:45:14.225Z,99.99
2018-04-24T09:46:14.269Z,99.99
2018-04-24T09:47:14.282Z,99.99
2018-04-24T09:48:14.296Z,99.99
2018-04-24T09:49:14.289Z,99.99
2018-04-24T09:50:14.294Z,99.99
2018-04-24T09:51:14.384Z,99.99
2018-04-24T09:52:14.326Z,99.99
2018-04-24T09:53:14.353Z,99.99
2018-04-24T09:54:14.360Z,99.99
2018-04-24T09:55:14.367Z,99.99
2018-04-24T09:56:14.408Z,99.99
2018-04-24T09:57:14.395Z,99.99
2018-04-24T09:58:14.451Z,99.99
2018-04-24T09:59:14.428Z,99.99
2018-04-24T10:00:14.441Z,99.99
2018-04-24T10:01:14.479Z,99.99
2018-04-24T10:02:14.516Z,99.99
2018-04-24T10:03:14.506Z,99.99
2018-04-24T10:04:14.494Z,99.99
2018-04-24T10:05:14.529Z,99.99
2018-04-24T10:06:14.523Z,99.99
2018-04-24T10:07:14.598Z,99.99
2018-04-24T10:08:14.579Z,99.99
2018-04-24T10:09:14.564Z,99.99
2018-04-24T10:10:14.602Z,99.99
2018-04-24T10:11:14.613Z,99.99
2018-04-24T10:12:14.618Z,99.99
2018-04-24T10:13:14.619Z,99.99
2018-04-24T10:14:14.634Z,99.99
2018-04-24T10:15:14.646Z,99.99
2018-04-24T10:16:14.687Z,99.92
2018-04-24T10:17:14.675Z,99.25
2018-04-24T10:18:14.687Z,99.25
2018-04-24T10:19:14.827Z,99.44
2018-04-24T10:20:14.742Z,99.44
2018-04-24T10:21:14.739Z,99.15
2018-04-24T10:22:14.773Z,98.86
2018-04-24T10:23:14.784Z,99.15
2018-04-24T10:24:14.777Z,98.48
2018-04-24T10:25:14.802Z,98.67
2018-04-24T10:26:14.831Z,98.29
2018-04-24T10:27:14.895Z,98.00
2018-04-24T10:28:14.851Z,98.38
2018-04-24T10:29:14.975Z,98.00
2018-04-24T10:30:14.864Z,97.81
2018-04-24T10:31:14.874Z,97.42
2018-04-24T10:32:14.919Z,97.52
2018-04-24T10:33:14.915Z,96.94
2018-04-24T10:34:14.919Z,97.24
2018-04-24T10:35:14.945Z,97.04
2018-04-24T10:36:14.957Z,97.52
2018-04-24T10:37:14.999Z,96.94
2018-04-24T10:38:14.989Z,96.85
2018-04-24T10:39:14.996Z,96.47
2018-04-24T10:40:15.040Z,96.56
2018-04-24T10:41:15.029Z,96.27
2018-04-24T10:42:15.064Z,96.61
2018-04-24T10:43:15.084Z,96.42
2018-04-24T10:44:15.062Z,95.89
2018-04-24T10:45:15.083Z,95.84
2018-04-24T10:46:15.121Z,95.17
2018-04-24T10:47:15.137Z,94.69
2018-04-24T10:48:15.125Z,94.69
2018-04-24T10:49:15.147Z,94.88
2018-04-24T10:50:15.160Z,94.49
2018-04-24T10:51:15.248Z,94.78
2018-04-24T10:52:15.194Z,94.11
2018-04-24T10:53:15.231Z,94.69
2018-04-24T10:54:15.217Z,94.21
2018-04-24T10:55:15.244Z,93.92
2018-04-24T10:56:15.247Z,93.39
2018-04-24T10:57:15.267Z,92.52
2018-04-24T10:58:15.290Z,91.37
2018-04-24T10:59:15.672Z,90.70
2018-04-24T11:00:15.311Z,89.93
2018-04-24T11:01:15.329Z,89.16
2018-04-24T11:02:15.346Z,89.16
2018-04-24T11:03:15.366Z,88.39
2018-04-24T11:04:15.397Z,88.63
2018-04-24T11:05:15.390Z,88.44
2018-04-24T11:06:15.414Z,87.57
2018-04-24T11:07:15.421Z,86.90
2018-04-24T11:08:15.441Z,87.29
2018-04-24T11:09:15.466Z,86.99
2018-04-24T11:10:15.476Z,86.61
2018-04-24T11:11:15.507Z,86.99
2018-04-24T11:12:15.501Z,87.57
2018-04-24T11:13:15.515Z,87.48
2018-04-24T11:14:15.629Z,86.80
2018-04-24T11:15:15.574Z,86.80
2018-04-24T11:16:15.558Z,87.09
2018-04-24T11:17:15.607Z,86.99
2018-04-24T11:18:15.591Z,86.22
2018-04-24T11:19:15.620Z,86.22
2018-04-24T11:20:15.628Z,86.52
2018-04-24T11:21:15.694Z,86.42
2018-04-24T11:22:15.671Z,85.75
2018-04-24T11:23:15.677Z,84.78
2018-04-24T11:24:15.704Z,84.59
2018-04-24T11:25:15.735Z,85.55
2018-04-24T11:26:15.749Z,85.27
2018-04-24T11:27:15.739Z,84.78
2018-04-24T11:28:15.765Z,84.44
2018-04-24T11:29:15.776Z,84.06
2018-04-24T11:30:15.837Z,84.25
2018-04-24T11:31:16.040Z,83.67
2018-04-24T11:32:15.824Z,82.32
2018-04-24T11:33:15.845Z,81.94
2018-04-24T11:34:15.887Z,82.23
2018-04-24T11:35:15.896Z,81.84
2018-04-24T11:36:15.916Z,81.37
2018-04-24T11:37:15.912Z,80.79
2018-04-24T11:38:15.923Z,80.83
2018-04-24T11:39:15.957Z,80.63
2018-04-24T11:40:15.985Z,80.63
2018-04-24T11:41:16.007Z,80.15
2018-04-24T11:42:16.017Z,80.44
2018-04-24T11:43:16.008Z,81.56
2018-04-24T11:44:16.047Z,80.25
2018-04-24T11:45:16.046Z,80.35
2018-04-24T11:46:16.083Z,80.25
2018-04-24T11:47:16.103Z,80.06
2018-04-24T11:48:16.096Z,79.58
2018-04-24T11:49:16.143Z,79.86
2018-04-24T11:50:16.128Z,78.90
2018-04-24T11:51:16.145Z,79.77
2018-04-24T11:52:16.194Z,79.58
2018-04-24T11:53:16.181Z,79.38
2018-04-24T11:54:16.299Z,79.19
2018-04-24T11:55:16.415Z,79.67
2018-04-24T11:56:16.258Z,79.61
2018-04-24T11:57:16.277Z,78.27
2018-04-24T11:58:16.297Z,77.01
2018-04-24T11:59:16.308Z,78.08
2018-04-24T12:00:16.342Z,77.88
2018-04-24T12:01:16.320Z,77.31
2018-04-24T12:02:16.346Z,77.69
2018-04-24T12:03:16.363Z,77.21
2018-04-24T12:04:16.572Z,76.53
2018-04-24T12:05:16.406Z,77.11
2018-04-24T12:06:16.433Z,78.36
2018-04-24T12:07:16.426Z,77.65
2018-04-24T12:08:17.047Z,78.03
2018-04-24T12:09:16.526Z,78.52
2018-04-24T12:10:16.504Z,78.46
2018-04-24T12:11:16.495Z,78.17
2018-04-24T12:12:16.511Z,77.88
2018-04-24T12:13:16.533Z,76.82
2018-04-24T12:14:16.645Z,77.53
2018-04-24T12:15:16.770Z,77.25
2018-04-24T12:16:16.609Z,75.90
2018-04-24T12:17:16.634Z,74.84
2018-04-24T12:18:16.652Z,74.40
2018-04-24T12:19:16.668Z,73.62
2018-04-24T12:20:17.065Z,73.72
2018-04-24T12:21:16.701Z,73.43
2018-04-24T12:22:16.697Z,72.56
2018-04-24T12:23:16.722Z,71.98
2018-04-24T12:24:17.113Z,72.75
2018-04-24T12:25:16.785Z,72.37
2018-04-24T12:26:16.778Z,73.27
2018-04-24T12:27:16.784Z,72.02
2018-04-24T12:28:16.838Z,70.86
2018-04-24T12:29:16.856Z,70.76
2018-04-24T12:30:16.853Z,71.25
2018-04-24T12:31:16.870Z,70.96
2018-04-24T12:32:16.912Z,70.67
2018-04-24T12:33:16.933Z,69.80
2018-04-24T12:34:16.925Z,70.13
2018-04-24T12:35:16.971Z,70.67
2018-04-24T12:36:16.962Z,70.57
2018-04-24T12:37:16.985Z,70.48
2018-04-24T12:38:17.029Z,71.06
2018-04-24T12:39:17.045Z,70.38
2018-04-24T12:40:17.043Z,69.80
2018-04-24T12:41:17.058Z,70.70
2018-04-24T12:42:17.078Z,68.39
2018-04-24T12:43:17.126Z,68.87
2018-04-24T12:44:17.125Z,69.45
2018-04-24T12:45:17.278Z,67.46
2018-04-24T12:46:17.156Z,66.88
2018-04-24T12:47:17.407Z,66.40
2018-04-24T12:48:17.194Z,66.11
2018-04-24T12:49:17.318Z,65.63
2018-04-24T12:50:17.263Z,66.49
2018-04-24T12:51:17.279Z,67.07
2018-04-24T12:52:17.280Z,67.55